createdAt,value
2022-11-21T00:03:31.629Z,0.32
2022-11-21T00:08:33.101Z,0.45
2022-11-21T00:13:34.541Z,0.55
2022-11-21T00:18:36.005Z,0.50
2022-11-21T00:23:37.504Z,1.00
2022-11-21T00:28:38.966Z,0.85
2022-11-21T00:33:40.408Z,0.93
2022-11-21T00:38:41.872Z,1.40
2022-11-21T00:43:43.318Z,1.13
2022-11-21T00:48:44.907Z,1.48
2022-11-21T00:53:46.686Z,1.42
2022-11-21T00:58:48.104Z,1.55
2022-11-21T01:03:49.517Z,1.63
2022-11-21T01:08:50.947Z,1.40
2022-11-21T01:13:53.681Z,0.95
2022-11-21T01:18:55.380Z,1.20
2022-11-21T01:23:58.777Z,1.23
2022-11-21T01:29:00.259Z,1.70
2022-11-21T01:34:01.891Z,1.67
2022-11-21T01:39:05.052Z,1.50
2022-11-21T01:44:21.948Z,2.28
2022-11-21T01:49:28.214Z,2.50
2022-11-21T01:54:31.712Z,3.90
2022-11-21T01:59:35.157Z,3.65
2022-11-21T02:04:37.052Z,3.33
2022-11-21T02:09:40.479Z,4.45
2022-11-21T02:14:43.515Z,3.58
2022-11-21T02:19:50.127Z,4.88
2022-11-21T02:24:59.891Z,4.07
2022-11-21T02:30:03.269Z,3.95
2022-11-21T02:35:04.883Z,3.35
2022-11-21T02:40:11.739Z,4.60
2022-11-21T02:45:22.663Z,3.17
2022-11-21T02:50:28.180Z,3.65
2022-11-21T02:55:29.625Z,3.45
2022-11-21T03:00:31.109Z,4.05
2022-11-21T03:05:32.956Z,4.63
2022-11-21T03:10:34.730Z,3.22
2022-11-21T03:15:36.156Z,4.95
2022-11-21T03:20:37.620Z,4.05
2022-11-21T03:25:39.066Z,4.32
2022-11-21T03:30:40.536Z,4.68
2022-11-21T03:35:41.937Z,4.10
2022-11-21T03:40:43.349Z,4.72
2022-11-21T03:45:48.298Z,3.83
2022-11-21T03:50:49.780Z,4.20
2022-11-21T03:55:51.203Z,4.40
2022-11-21T04:00:52.616Z,4.63
2022-11-21T04:05:54.128Z,5.32
2022-11-21T04:10:55.870Z,3.47
2022-11-21T04:15:57.305Z,4.47
2022-11-21T04:20:59.324Z,4.97
2022-11-21T04:26:00.749Z,3.67
2022-11-21T04:31:10.454Z,4.20
2022-11-21T04:36:12.454Z,3.97
2022-11-21T04:41:13.949Z,3.45
2022-11-21T04:46:15.759Z,3.80
2022-11-21T04:51:17.264Z,3.90
2022-11-21T04:56:18.754Z,2.95
2022-11-21T05:01:20.265Z,4.15
2022-11-21T05:06:21.803Z,3.15
2022-11-21T05:11:41.991Z,3.28
2022-11-21T05:16:43.471Z,2.78
2022-11-21T05:21:44.895Z,2.97
2022-11-21T05:26:46.395Z,3.33
2022-11-21T05:31:47.846Z,2.58
2022-11-21T05:36:49.308Z,2.97
2022-11-21T05:41:50.727Z,3.15
2022-11-21T05:46:52.247Z,2.88
2022-11-21T05:51:53.716Z,3.33
2022-11-21T05:56:55.275Z,3.40
2022-11-21T06:02:15.150Z,3.30
2022-11-21T06:07:16.580Z,3.63
2022-11-21T06:12:21.519Z,2.42
2022-11-21T06:17:26.575Z,3.15
2022-11-21T06:22:28.044Z,3.47
2022-11-21T06:27:29.875Z,3.45
2022-11-21T06:32:36.178Z,4.00
2022-11-21T06:37:37.631Z,3.90
2022-11-21T06:42:39.037Z,3.50
2022-11-21T06:47:40.496Z,4.40
2022-11-21T06:52:42.175Z,3.50
2022-11-21T06:57:43.618Z,3.35
2022-11-21T07:02:45.124Z,2.13
2022-11-21T07:07:46.857Z,2.83
2022-11-21T07:13:06.757Z,3.15
2022-11-21T07:18:08.256Z,1.73
2022-11-21T07:23:09.776Z,2.45
2022-11-21T07:28:11.267Z,2.90
2022-11-21T07:33:12.726Z,1.98
2022-11-21T07:38:14.280Z,2.35
2022-11-21T07:43:15.710Z,2.55
2022-11-21T07:48:17.360Z,2.55
2022-11-21T07:53:18.878Z,2.08
2022-11-21T07:58:21.545Z,3.08
2022-11-21T08:03:25.329Z,1.73
2022-11-21T08:08:26.796Z,2.13
2022-11-21T08:13:28.939Z,2.40
2022-11-21T08:18:30.419Z,2.42
2022-11-21T08:23:32.247Z,2.38
2022-11-21T08:28:33.687Z,2.03
2022-11-21T08:33:35.179Z,2.35
2022-11-21T08:38:36.661Z,2.50
2022-11-21T08:43:38.108Z,2.47
2022-11-21T08:48:39.950Z,1.90
2022-11-21T08:53:41.591Z,1.85
2022-11-21T08:58:43.084Z,1.60
2022-11-21T09:03:44.553Z,1.30
2022-11-21T09:08:47.016Z,1.33
2022-11-21T09:14:08.555Z,1.30
2022-11-21T09:19:10.051Z,1.20
2022-11-21T09:24:11.524Z,1.08
2022-11-21T09:29:15.078Z,0.85
2022-11-21T09:34:16.581Z,0.63
2022-11-21T09:39:18.101Z,0.55
2022-11-21T09:44:41.420Z,0.98
2022-11-21T09:49:45.397Z,0.73
2022-11-21T09:54:55.487Z,0.80
2022-11-21T09:59:57.075Z,0.60
2022-11-21T10:05:00.928Z,0.82
2022-11-21T10:10:09.208Z,0.82
2022-11-21T10:15:29.399Z,0.90
2022-11-21T10:20:36.599Z,1.30
2022-11-21T10:25:38.951Z,1.08
2022-11-21T10:30:42.630Z,0.85
2022-11-21T10:35:47.036Z,0.68
2022-11-21T10:40:55.059Z,0.63
2022-11-21T10:45:56.749Z,1.13
2022-11-21T10:51:13.736Z,0.85
2022-11-21T10:56:17.407Z,0.60
2022-11-21T11:01:18.876Z,0.70
2022-11-21T11:06:28.235Z,0.65
2022-11-21T11:11:29.699Z,0.93
2022-11-21T11:16:35.965Z,0.85
2022-11-21T11:21:40.863Z,0.70
2022-11-21T11:26:49.367Z,0.60
2022-11-21T11:32:05.142Z,0.60
2022-11-21T11:37:18.678Z,0.55
2022-11-21T11:42:38.747Z,0.75
2022-11-21T11:47:54.128Z,0.40
2022-11-21T11:53:05.013Z,0.75
2022-11-21T11:58:29.859Z,0.70
2022-11-21T12:03:31.769Z,0.75
2022-11-21T12:08:41.341Z,0.73
2022-11-21T12:13:44.051Z,1.05
2022-11-21T12:18:55.941Z,0.95
2022-11-21T12:23:58.056Z,0.88
2022-11-21T12:29:17.608Z,1.17
2022-11-21T12:34:19.012Z,0.98
2022-11-21T12:39:23.452Z,0.93
2022-11-21T12:44:24.846Z,0.65
2022-11-21T12:49:49.091Z,0.98
2022-11-21T12:54:57.732Z,0.93
2022-11-21T13:00:02.051Z,1.63
2022-11-21T13:05:04.777Z,1.48
2022-11-21T13:10:13.032Z,1.30
2022-11-21T13:15:14.465Z,0.77
2022-11-21T13:20:51.506Z,1.48
2022-11-21T13:25:52.964Z,1.27
2022-11-21T13:30:55.466Z,1.13
2022-11-21T13:35:56.979Z,1.20
2022-11-21T13:41:17.088Z,1.05
2022-11-21T13:46:41.951Z,1.13
2022-11-21T13:51:49.135Z,0.90
2022-11-21T13:56:59.659Z,0.90
2022-11-21T14:02:11.704Z,1.23
2022-11-21T14:07:33.745Z,0.80
2022-11-21T14:12:41.219Z,0.88
2022-11-21T14:17:54.768Z,1.17
2022-11-21T14:23:06.389Z,0.93
2022-11-21T14:28:21.758Z,1.30
2022-11-21T14:33:35.132Z,1.13
2022-11-21T14:38:41.378Z,0.60
2022-11-21T14:43:42.835Z,0.75
2022-11-21T14:48:44.652Z,0.57
2022-11-21T14:53:47.675Z,0.60
2022-11-21T14:58:50.548Z,0.73
2022-11-21T15:03:56.988Z,0.82
2022-11-21T15:14:29.595Z,1.10
2022-11-21T15:19:32.716Z,1.05
2022-11-21T15:24:40.147Z,1.10
2022-11-21T15:29:42.190Z,1.23
2022-11-21T15:34:43.780Z,1.63
2022-11-21T15:39:46.136Z,1.95
2022-11-21T15:45:00.851Z,1.65
2022-11-21T15:50:02.723Z,1.50
2022-11-21T15:55:04.221Z,1.90
2022-11-21T16:00:05.942Z,2.08
2022-11-21T16:05:11.102Z,2.35
2022-11-21T16:10:19.817Z,1.58
2022-11-21T16:15:24.825Z,2.15
2022-11-21T16:20:26.366Z,1.90
2022-11-21T16:25:27.857Z,1.85
2022-11-21T16:30:29.427Z,1.77
2022-11-21T16:35:32.023Z,1.23
2022-11-21T16:40:33.427Z,1.38
2022-11-21T16:45:34.887Z,1.20
2022-11-21T16:50:36.680Z,1.13
2022-11-21T16:55:38.209Z,0.95
2022-11-21T17:00:39.841Z,1.13
2022-11-21T17:05:41.492Z,1.40
2022-11-21T17:10:42.902Z,1.38
2022-11-21T17:15:45.049Z,1.45
2022-11-21T17:20:46.471Z,1.73
2022-11-21T17:25:47.892Z,1.90
2022-11-21T17:30:49.340Z,1.48
2022-11-21T17:35:51.031Z,1.77
2022-11-21T17:41:11.307Z,2.47
2022-11-21T17:46:14.008Z,2.72
2022-11-21T17:51:21.314Z,2.83
2022-11-21T17:56:24.535Z,2.35
2022-11-21T18:01:26.389Z,2.70
2022-11-21T18:06:29.185Z,3.33
2022-11-21T18:11:37.654Z,2.17
2022-11-21T18:16:44.709Z,1.98
2022-11-21T18:21:49.208Z,1.33
2022-11-21T18:26:50.757Z,1.27
2022-11-21T18:31:53.199Z,1.25
2022-11-21T18:36:54.822Z,1.33
2022-11-21T18:41:56.251Z,1.42
2022-11-21T18:46:57.847Z,1.10
2022-11-21T18:51:59.740Z,1.42
2022-11-21T18:57:01.192Z,1.45
2022-11-21T19:02:04.182Z,1.50
2022-11-21T19:07:05.710Z,1.27
2022-11-21T19:12:07.304Z,1.48
2022-11-21T19:17:08.762Z,2.05
2022-11-21T19:22:13.308Z,1.52
2022-11-21T19:27:14.745Z,1.88
2022-11-21T19:32:16.169Z,1.38
2022-11-21T19:37:17.649Z,1.48
2022-11-21T19:42:19.159Z,1.42
2022-11-21T19:47:20.652Z,1.75
2022-11-21T19:52:27.587Z,1.42
2022-11-21T19:57:29.507Z,1.75
2022-11-21T20:02:30.940Z,1.55
2022-11-21T20:07:32.511Z,2.28
2022-11-21T20:12:36.908Z,2.40
2022-11-21T20:17:38.360Z,2.22
2022-11-21T20:22:39.913Z,2.55
2022-11-21T20:27:41.360Z,2.83
2022-11-21T20:32:42.920Z,2.30
2022-11-21T20:37:44.398Z,2.22
2022-11-21T20:42:45.816Z,2.85
2022-11-21T20:47:47.380Z,2.40
2022-11-21T20:58:10.436Z,2.83
2022-11-21T21:03:13.026Z,2.67
2022-11-21T21:08:14.464Z,2.47
2022-11-21T21:13:15.997Z,2.67
2022-11-21T21:18:17.455Z,2.95
2022-11-21T21:23:18.881Z,2.50
2022-11-21T21:28:20.300Z,2.95
2022-11-21T21:33:22.189Z,2.35
2022-11-21T21:38:23.656Z,2.65
2022-11-21T21:43:25.150Z,2.67
2022-11-21T21:48:26.679Z,2.25
2022-11-21T21:53:28.160Z,2.58
2022-11-21T21:58:31.927Z,2.47
2022-11-21T22:03:33.586Z,2.75
2022-11-21T22:08:36.116Z,2.55
2022-11-21T22:13:38.424Z,3.08
2022-11-21T22:18:40.326Z,2.38
2022-11-21T22:23:56.475Z,2.63
2022-11-21T22:29:03.772Z,2.95
2022-11-21T22:34:05.293Z,2.58
2022-11-21T22:39:06.822Z,2.70
2022-11-21T22:44:08.292Z,3.03
2022-11-21T22:49:09.812Z,2.67
2022-11-21T22:54:11.317Z,3.45
2022-11-21T22:59:13.935Z,3.70
2022-11-21T23:04:17.878Z,3.70
2022-11-21T23:09:19.507Z,3.25
2022-11-21T23:14:20.921Z,2.78
2022-11-21T23:19:22.357Z,2.90
2022-11-21T23:24:23.773Z,3.30
2022-11-21T23:29:25.211Z,3.88
2022-11-21T23:34:26.654Z,3.83
2022-11-21T23:39:29.444Z,3.50
2022-11-21T23:44:30.906Z,3.13
2022-11-21T23:49:32.347Z,3.45
2022-11-21T23:54:33.747Z,3.40
2022-11-21T23:59:35.166Z,4.13
